Time;durP1;ratioP1;P1;durP2;ratioP2;P2;SDS_P1;SDS_P2;PMS_P1;PMS_P2;Temp;Humidity;BMP_temperature;BMP_pressure;BME280_temperature;BME280_humidity;BME280_pressure;Samples;Min_cycle;Max_cycle;Signal;HPM_P1;HPM_P2
2023/12/14 00:02:10;;;;;;;5.30;3.20;;;22.30;75.00;;;;;;4851455;28;20456;-66
2023/12/14 00:04:37;;;;;;;5.47;3.20;;;22.30;75.10;;;;;;4848603;28;20471;-66
2023/12/14 00:07:04;;;;;;;5.30;3.60;;;22.30;76.00;;;;;;4849183;28;20558;-66
2023/12/14 00:09:31;;;;;;;5.43;3.20;;;22.20;74.90;;;;;;4851262;28;20494;-66
2023/12/14 00:11:57;;;;;;;3.30;3.03;;;22.20;75.00;;;;;;4844010;28;20472;-66
2023/12/14 00:14:24;;;;;;;5.77;4.10;;;22.20;75.70;;;;;;4853746;28;20463;-65
2023/12/14 00:16:51;;;;;;;3.87;3.37;;;22.30;75.00;;;;;;4851705;28;25941;-66
2023/12/14 00:19:18;;;;;;;5.10;3.40;;;22.40;75.10;;;;;;4848714;28;21488;-66
2023/12/14 00:21:44;;;;;;;4.43;2.87;;;22.20;74.90;;;;;;4852731;28;20485;-66
2023/12/14 00:24:13;;;;;;;3.93;2.70;;;22.20;75.00;;;;;;4848681;28;26108;-65
2023/12/14 00:26:39;;;;;;;4.33;3.20;;;22.20;75.00;;;;;;4847338;28;21628;-66
2023/12/14 00:29:06;;;;;;;5.30;2.73;;;22.10;74.80;;;;;;4847443;28;21787;-66
2023/12/14 00:31:33;;;;;;;3.00;2.63;;;22.10;74.80;;;;;;4850919;28;20456;-65
2023/12/14 00:34:00;;;;;;;3.50;3.20;;;22.10;75.00;;;;;;4853188;28;21369;-66
2023/12/14 00:36:26;;;;;;;3.73;3.33;;;22.10;75.00;;;;;;4852572;28;20452;-66
2023/12/14 00:38:54;;;;;;;3.53;3.23;;;22.10;75.10;;;;;;4853938;28;20468;-66
2023/12/14 00:41:22;;;;;;;5.97;2.90;;;22.00;75.00;;;;;;4850520;28;20697;-65
2023/12/14 00:43:49;;;;;;;5.53;3.63;;;22.10;75.20;;;;;;4848606;28;20478;-66
2023/12/14 00:46:16;;;;;;;4.00;3.53;;;22.10;75.10;;;;;;4852989;28;20472;-66
2023/12/14 00:48:43;;;;;;;4.00;3.07;;;22.20;75.20;;;;;;4854700;28;20479;-65
2023/12/14 00:51:09;;;;;;;3.70;2.50;;;22.00;75.10;;;;;;4853120;28;26393;-66
2023/12/14 00:53:36;;;;;;;4.00;3.30;;;22.00;75.00;;;;;;4852348;28;20464;-66
2023/12/14 00:56:03;;;;;;;4.50;2.73;;;22.00;75.10;;;;;;4851950;28;20474;-65
2023/12/14 00:58:31;;;;;;;4.60;3.33;;;22.00;75.00;;;;;;4847735;28;20586;-66
2023/12/14 01:00:58;;;;;;;3.63;2.73;;;22.00;75.10;;;;;;4850837;28;20474;-66
2023/12/14 01:03:25;;;;;;;4.37;3.50;;;21.90;74.90;;;;;;4849109;28;20784;-66
2023/12/14 01:05:52;;;;;;;3.20;2.60;;;21.90;74.90;;;;;;4849628;28;20455;-67
2023/12/14 01:08:18;;;;;;;5.37;3.60;;;21.90;75.00;;;;;;4850486;28;20463;-66
2023/12/14 01:10:45;;;;;;;3.40;2.40;;;22.00;75.20;;;;;;4847327;28;20603;-66
2023/12/14 01:13:13;;;;;;;4.60;3.03;;;21.90;75.20;;;;;;4853335;28;26099;-66
2023/12/14 01:15:41;;;;;;;2.90;2.53;;;21.80;75.10;;;;;;4849952;28;20463;-65
2023/12/14 01:18:08;;;;;;;2.37;2.17;;;21.90;75.20;;;;;;4850757;28;20470;-66
2023/12/14 01:20:35;;;;;;;3.17;2.87;;;21.80;75.10;;;;;;4849214;28;20486;-66
2023/12/14 01:23:01;;;;;;;3.10;2.57;;;21.80;75.10;;;;;;4852184;28;20460;-66
2023/12/14 01:25:29;;;;;;;3.80;2.50;;;21.80;75.10;;;;;;4850648;28;20460;-66
2023/12/14 01:27:55;;;;;;;5.30;2.63;;;21.80;75.20;;;;;;4846595;28;20598;-65
2023/12/14 01:30:22;;;;;;;3.97;2.60;;;21.80;75.00;;;;;;4848712;28;20678;-65
2023/12/14 01:32:50;;;;;;;2.60;2.40;;;21.80;75.10;;;;;;4851316;28;20467;-66
2023/12/14 01:35:17;;;;;;;2.40;2.20;;;21.70;74.90;;;;;;4850267;28;20459;-66
2023/12/14 01:37:44;;;;;;;4.60;2.97;;;21.80;75.00;;;;;;4850194;28;20466;-66
2023/12/14 01:40:11;;;;;;;2.73;2.53;;;21.80;75.00;;;;;;4853994;28;20471;-66
2023/12/14 01:42:38;;;;;;;4.03;2.20;;;21.70;75.00;;;;;;4848893;28;20760;-66
2023/12/14 01:45:06;;;;;;;2.67;2.47;;;21.70;75.70;;;;;;4848629;28;25395;-66
2023/12/14 01:47:33;;;;;;;3.00;2.70;;;21.70;75.30;;;;;;4850436;28;20467;-66
2023/12/14 01:50:01;;;;;;;3.57;2.90;;;21.70;75.60;;;;;;4848227;28;20488;-66
2023/12/14 01:52:28;;;;;;;3.87;3.17;;;21.80;75.50;;;;;;4851604;28;20471;-66
2023/12/14 01:54:58;;;;;;;3.33;2.60;;;21.70;75.30;;;;;;4850290;28;20459;-66
2023/12/14 01:57:25;;;;;;;3.20;2.40;;;21.60;75.30;;;;;;4847319;28;20649;-67
2023/12/14 01:59:52;;;;;;;4.63;2.50;;;21.60;75.30;;;;;;4848565;28;20474;-66
2023/12/14 02:02:20;;;;;;;4.27;2.83;;;21.60;75.30;;;;;;4850230;28;20455;-66
2023/12/14 02:04:46;;;;;;;2.67;2.30;;;21.60;75.10;;;;;;4844394;28;20480;-66
2023/12/14 02:07:15;;;;;;;2.40;1.90;;;21.60;75.10;;;;;;4848720;28;20656;-66
2023/12/14 02:09:41;;;;;;;4.20;3.30;;;21.50;75.00;;;;;;4849616;28;20476;-66
2023/12/14 02:12:08;;;;;;;2.33;2.13;;;21.60;75.30;;;;;;4849838;28;21042;-66
2023/12/14 02:14:35;;;;;;;3.10;2.23;;;21.60;75.40;;;;;;4849792;28;20460;-66
2023/12/14 02:17:02;;;;;;;2.60;2.37;;;21.50;75.40;;;;;;4846144;28;20470;-66
2023/12/14 02:19:29;;;;;;;2.60;2.40;;;21.50;75.40;;;;;;4848664;28;20506;-66
2023/12/14 02:21:55;;;;;;;2.10;1.83;;;21.50;75.50;;;;;;4849339;28;20474;-66
2023/12/14 02:24:24;;;;;;;3.83;2.17;;;21.50;75.50;;;;;;4847087;28;20470;-66
2023/12/14 02:26:50;;;;;;;3.07;2.60;;;21.50;75.60;;;;;;4846635;28;20464;-66
2023/12/14 02:29:17;;;;;;;3.53;2.60;;;21.50;75.40;;;;;;4848367;28;20462;-66
2023/12/14 02:31:44;;;;;;;2.67;2.40;;;21.50;75.40;;;;;;4853006;28;20507;-65
2023/12/14 02:34:11;;;;;;;3.03;2.73;;;21.50;75.50;;;;;;4850433;28;20474;-66
2023/12/14 02:36:37;;;;;;;3.70;2.63;;;21.60;75.50;;;;;;4853934;28;20473;-66
2023/12/14 02:39:04;;;;;;;2.70;2.50;;;21.50;75.20;;;;;;4853581;28;20463;-66
2023/12/14 02:41:33;;;;;;;2.57;2.07;;;21.50;75.10;;;;;;4853250;28;21526;-66
2023/12/14 02:43:59;;;;;;;2.60;2.33;;;21.50;75.30;;;;;;4852348;28;21090;-66
2023/12/14 02:46:26;;;;;;;2.70;2.20;;;21.40;75.30;;;;;;4852358;28;20463;-65
2023/12/14 02:48:53;;;;;;;2.97;2.30;;;21.40;75.40;;;;;;4851922;28;20459;-65
2023/12/14 02:51:19;;;;;;;2.80;2.00;;;21.40;75.60;;;;;;4853230;28;20491;-66
2023/12/14 02:53:46;;;;;;;3.33;2.50;;;21.40;75.70;;;;;;4854416;28;20459;-66
2023/12/14 02:56:13;;;;;;;3.67;2.50;;;21.40;75.60;;;;;;4855078;28;21009;-66
2023/12/14 02:58:41;;;;;;;3.10;1.97;;;21.40;75.60;;;;;;4856336;28;21260;-66
2023/12/14 03:01:08;;;;;;;2.80;2.33;;;21.40;75.60;;;;;;4854779;28;20534;-66
2023/12/14 03:03:35;;;;;;;3.00;2.43;;;21.40;75.50;;;;;;4848564;28;21030;-65
2023/12/14 03:06:01;;;;;;;2.20;2.00;;;21.40;75.30;;;;;;4852520;28;20467;-66
2023/12/14 03:08:28;;;;;;;2.67;2.17;;;21.30;75.30;;;;;;4858123;28;20465;-65
2023/12/14 03:10:55;;;;;;;2.63;1.90;;;21.30;75.20;;;;;;4851433;28;20481;-66
2023/12/14 03:13:22;;;;;;;2.77;2.47;;;21.40;75.20;;;;;;4853053;28;20468;-66
2023/12/14 03:15:50;;;;;;;3.50;2.53;;;21.40;76.10;;;;;;4854682;28;20464;-66
2023/12/14 03:18:17;;;;;;;2.90;2.60;;;21.30;75.30;;;;;;4853488;28;20488;-66
2023/12/14 03:20:43;;;;;;;2.60;2.40;;;21.30;75.40;;;;;;4853091;28;20471;-65
2023/12/14 03:23:10;;;;;;;3.00;2.57;;;21.30;75.40;;;;;;4855621;28;20565;-65
2023/12/14 03:25:37;;;;;;;3.50;2.63;;;21.20;75.40;;;;;;4848197;28;20476;-66
2023/12/14 03:28:04;;;;;;;2.43;2.00;;;21.30;75.70;;;;;;4847882;28;20463;-66
2023/12/14 03:30:31;;;;;;;3.07;2.53;;;21.30;75.70;;;;;;4853780;28;20482;-65
2023/12/14 03:32:59;;;;;;;2.33;2.00;;;21.30;75.60;;;;;;4849484;28;20467;-66
2023/12/14 03:35:25;;;;;;;2.87;2.57;;;21.20;75.40;;;;;;4853785;28;20911;-65
2023/12/14 03:37:52;;;;;;;3.47;2.20;;;21.30;75.40;;;;;;4850508;28;20478;-66
2023/12/14 03:40:19;;;;;;;2.08;1.85;;;21.30;75.60;;;;;;4848150;28;20465;-66
2023/12/14 03:42:46;;;;;;;2.33;2.10;;;21.30;75.40;;;;;;4856337;28;25716;-66
2023/12/14 03:45:13;;;;;;;2.53;2.20;;;21.30;75.30;;;;;;4852906;28;20471;-66
2023/12/14 03:47:40;;;;;;;4.23;2.63;;;21.30;76.20;;;;;;4849945;28;20459;-66
2023/12/14 03:50:11;;;;;;;2.50;2.10;;;21.20;75.30;;;;;;4847676;28;20475;-66
2023/12/14 03:52:38;;;;;;;3.10;2.40;;;21.20;75.40;;;;;;4849490;28;20459;-66
2023/12/14 03:55:06;;;;;;;3.37;2.00;;;21.20;75.60;;;;;;4851975;28;20464;-66
2023/12/14 03:57:33;;;;;;;2.20;2.00;;;21.20;75.60;;;;;;4851040;28;20468;-66
2023/12/14 03:59:59;;;;;;;3.20;1.97;;;21.20;75.70;;;;;;4850016;28;20463;-66
2023/12/14 04:02:26;;;;;;;2.23;2.03;;;21.20;75.70;;;;;;4850836;28;20462;-66
2023/12/14 04:04:53;;;;;;;2.40;2.13;;;21.20;75.60;;;;;;4852312;28;20463;-65
2023/12/14 04:07:21;;;;;;;2.30;2.00;;;21.20;75.60;;;;;;4849094;28;20598;-66
2023/12/14 04:09:48;;;;;;;5.33;2.47;;;21.10;75.40;;;;;;4851701;28;20502;-65
2023/12/14 04:12:15;;;;;;;2.60;2.03;;;21.10;75.40;;;;;;4850924;28;20471;-65
2023/12/14 04:14:42;;;;;;;1.90;1.70;;;21.20;75.60;;;;;;4851052;28;21734;-66
2023/12/14 04:17:08;;;;;;;2.60;2.40;;;21.10;75.30;;;;;;4851962;28;21745;-65
2023/12/14 04:19:35;;;;;;;2.35;1.95;;;21.20;75.50;;;;;;4852122;28;20487;-66
2023/12/14 04:22:02;;;;;;;2.63;1.70;;;21.10;75.50;;;;;;4850150;28;20286;-66
2023/12/14 04:24:30;;;;;;;2.87;2.60;;;21.10;75.40;;;;;;4851482;28;20469;-66
2023/12/14 04:26:57;;;;;;;2.13;1.77;;;21.10;75.60;;;;;;4850272;28;25702;-65
2023/12/14 04:29:24;;;;;;;2.40;2.20;;;21.10;75.50;;;;;;4851755;28;20460;-66
2023/12/14 04:31:50;;;;;;;2.50;1.90;;;21.10;75.80;;;;;;4851192;28;20232;-66
2023/12/14 04:34:18;;;;;;;2.33;1.97;;;21.10;75.90;;;;;;4848936;28;20464;-66
2023/12/14 04:36:46;;;;;;;2.50;1.80;;;21.10;75.60;;;;;;4848422;28;20549;-65
2023/12/14 04:39:13;;;;;;;2.33;2.13;;;21.10;75.40;;;;;;4851926;28;20472;-66
2023/12/14 04:41:41;;;;;;;2.70;2.50;;;21.10;76.40;;;;;;4850541;28;20221;-65
2023/12/14 04:44:10;;;;;;;3.37;2.20;;;21.00;75.50;;;;;;4851342;28;20467;-66
2023/12/14 04:46:36;;;;;;;2.90;2.53;;;21.10;75.70;;;;;;4847588;28;20459;-66
2023/12/14 04:49:03;;;;;;;2.50;2.10;;;21.10;76.20;;;;;;4850670;28;20576;-65
2023/12/14 04:51:31;;;;;;;2.60;2.13;;;21.10;75.60;;;;;;4850586;28;20604;-66
2023/12/14 04:53:58;;;;;;;2.93;2.27;;;21.00;75.50;;;;;;4849985;28;20472;-65
2023/12/14 04:56:25;;;;;;;2.33;1.90;;;21.10;75.80;;;;;;4849360;28;20464;-66
2023/12/14 04:58:53;;;;;;;2.47;2.10;;;21.00;75.70;;;;;;4847294;28;20463;-66
2023/12/14 05:01:20;;;;;;;1.90;1.80;;;21.10;75.90;;;;;;4847785;28;20463;-66
2023/12/14 05:03:46;;;;;;;2.07;1.70;;;21.00;75.70;;;;;;4846191;28;20468;-66
2023/12/14 05:06:13;;;;;;;2.73;1.90;;;21.00;75.70;;;;;;4848620;28;20474;-65
2023/12/14 05:08:40;;;;;;;2.07;1.80;;;21.00;75.70;;;;;;4848089;28;20464;-66
2023/12/14 05:11:07;;;;;;;2.33;2.03;;;21.10;75.70;;;;;;4853454;28;20488;-65
2023/12/14 05:13:34;;;;;;;3.10;2.17;;;21.00;75.40;;;;;;4846074;28;20459;-65
2023/12/14 05:16:02;;;;;;;2.87;1.90;;;21.00;75.50;;;;;;4843510;28;21485;-66
2023/12/14 05:18:28;;;;;;;2.40;1.53;;;21.00;75.40;;;;;;4850890;28;20671;-66
2023/12/14 05:20:55;;;;;;;2.03;1.80;;;21.00;75.70;;;;;;4840065;28;20482;-66
2023/12/14 05:23:23;;;;;;;2.77;2.03;;;21.00;75.60;;;;;;4845274;28;20455;-66
2023/12/14 05:25:50;;;;;;;2.73;2.10;;;21.00;75.70;;;;;;4851687;28;20915;-66
2023/12/14 05:28:17;;;;;;;1.70;1.60;;;21.00;75.60;;;;;;4848546;28;20494;-66
2023/12/14 05:30:44;;;;;;;1.70;1.60;;;20.90;75.70;;;;;;4847386;28;20225;-66
2023/12/14 05:33:12;;;;;;;1.93;1.73;;;21.00;75.80;;;;;;4846566;28;20512;-65
2023/12/14 05:35:39;;;;;;;2.25;2.03;;;21.00;75.90;;;;;;4847112;28;20467;-66
2023/12/14 05:38:05;;;;;;;2.53;2.10;;;20.90;75.80;;;;;;4845485;28;20200;-66
2023/12/14 05:40:32;;;;;;;3.10;2.07;;;21.00;75.70;;;;;;4851212;28;20471;-66
2023/12/14 05:42:59;;;;;;;2.07;1.83;;;21.00;75.70;;;;;;4849926;28;20970;-65
2023/12/14 05:45:25;;;;;;;2.30;1.63;;;21.00;75.60;;;;;;4840729;28;21531;-65
2023/12/14 05:47:52;;;;;;;2.65;1.60;;;21.00;75.70;;;;;;4850309;28;20477;-65
2023/12/14 05:50:22;;;;;;;2.47;2.00;;;21.00;75.90;;;;;;4850796;28;20240;-66
2023/12/14 05:52:49;;;;;;;3.03;2.72;;;21.00;75.90;;;;;;4847065;28;20459;-65
2023/12/14 05:55:18;;;;;;;1.97;1.77;;;20.90;75.90;;;;;;4848146;28;20229;-66
2023/12/14 05:57:45;;;;;;;2.53;1.73;;;21.00;76.10;;;;;;4847347;28;21065;-65
2023/12/14 06:00:13;;;;;;;2.03;1.60;;;20.90;75.90;;;;;;4848454;28;21031;-67
2023/12/14 06:02:39;;;;;;;21.57;3.00;;;20.90;76.00;;;;;;4842023;28;20586;-75
2023/12/14 06:05:07;;;;;;;3.83;2.00;;;21.00;76.40;;;;;;4762828;28;20468;-69
2023/12/14 06:07:35;;;;;;;2.00;1.60;;;20.90;76.40;;;;;;4752301;28;21440;-68
2023/12/14 06:10:02;;;;;;;2.13;1.70;;;21.00;76.70;;;;;;4790957;28;21708;-68
2023/12/14 06:12:30;;;;;;;2.77;2.03;;;20.90;76.70;;;;;;4788355;28;20593;-67
2023/12/14 06:14:57;;;;;;;10.13;2.17;;;21.00;77.10;;;;;;4782712;28;20691;-68
2023/12/14 06:17:23;;;;;;;2.90;2.00;;;21.00;77.00;;;;;;4786349;28;20470;-68
2023/12/14 06:19:50;;;;;;;2.77;1.93;;;21.00;77.30;;;;;;4782204;28;20476;-69
2023/12/14 06:22:17;;;;;;;7.80;1.60;;;21.00;77.50;;;;;;4785596;28;20470;-69
2023/12/14 06:24:45;;;;;;;3.97;3.63;;;21.00;77.80;;;;;;4790675;28;20463;-68
2023/12/14 06:27:12;;;;;;;4.63;1.33;;;21.00;77.70;;;;;;4790467;28;20594;-68
2023/12/14 06:29:38;;;;;;;2.00;1.60;;;21.00;77.70;;;;;;4786358;28;21152;-68
2023/12/14 06:32:06;;;;;;;1.77;1.40;;;21.00;77.50;;;;;;4776678;28;20478;-68
2023/12/14 06:34:32;;;;;;;2.00;1.50;;;21.00;77.50;;;;;;4780295;28;23186;-69
2023/12/14 06:37:00;;;;;;;2.40;2.20;;;21.00;77.50;;;;;;4819633;28;20475;-71
2023/12/14 06:39:26;;;;;;;2.13;1.93;;;20.90;77.60;;;;;;4852172;28;21537;-65
2023/12/14 06:41:55;;;;;;;2.30;1.70;;;21.00;77.00;;;;;;4852621;28;20474;-66
2023/12/14 06:44:21;;;;;;;1.80;1.60;;;21.00;77.70;;;;;;4847461;28;20560;-65
2023/12/14 06:46:48;;;;;;;4.93;1.80;;;21.00;77.80;;;;;;4851505;28;20469;-65
2023/12/14 06:49:15;;;;;;;4.00;1.97;;;21.00;77.60;;;;;;4845863;28;20471;-65
2023/12/14 06:51:42;;;;;;;1.80;1.53;;;20.90;77.80;;;;;;4855600;28;26066;-65
2023/12/14 06:54:09;;;;;;;3.47;1.37;;;20.90;77.40;;;;;;4855351;28;20473;-65
2023/12/14 06:56:37;;;;;;;4.50;2.27;;;20.90;77.40;;;;;;4855191;28;20502;-65
2023/12/14 06:59:05;;;;;;;2.23;2.03;;;20.90;77.50;;;;;;4854077;28;20461;-67
2023/12/14 07:01:32;;;;;;;4.57;1.90;;;21.10;77.80;;;;;;4847493;28;20459;-68
2023/12/14 07:03:59;;;;;;;2.40;2.00;;;20.90;77.40;;;;;;4852279;28;20482;-68
2023/12/14 07:06:25;;;;;;;2.87;1.83;;;20.90;77.30;;;;;;4849754;28;21050;-67
2023/12/14 07:08:52;;;;;;;3.47;2.40;;;20.90;77.20;;;;;;4857570;28;20582;-67
2023/12/14 07:11:19;;;;;;;3.60;1.70;;;20.90;77.20;;;;;;4855441;28;20625;-67
2023/12/14 07:13:46;;;;;;;2.03;1.80;;;20.90;77.10;;;;;;4851283;28;21062;-67
2023/12/14 07:16:15;;;;;;;2.07;1.87;;;20.90;77.10;;;;;;4851791;28;20460;-67
2023/12/14 07:18:42;;;;;;;2.90;2.10;;;20.90;77.10;;;;;;4848776;28;20462;-68
2023/12/14 07:21:09;;;;;;;1.83;1.60;;;20.90;76.90;;;;;;4850616;28;20486;-67
2023/12/14 07:23:37;;;;;;;2.43;2.00;;;20.90;76.80;;;;;;4855170;28;20460;-67
2023/12/14 07:26:04;;;;;;;3.60;1.60;;;21.00;77.10;;;;;;4853987;28;20459;-68
2023/12/14 07:28:31;;;;;;;2.47;2.03;;;20.90;76.90;;;;;;4852654;28;20480;-67
2023/12/14 07:30:57;;;;;;;2.10;1.90;;;20.90;76.80;;;;;;4852453;28;21218;-67
2023/12/14 07:33:25;;;;;;;1.83;1.33;;;20.70;76.50;;;;;;4850947;28;20498;-68
2023/12/14 07:35:52;;;;;;;2.50;1.70;;;20.90;76.60;;;;;;4853124;28;20465;-67
2023/12/14 07:38:19;;;;;;;2.37;2.00;;;20.90;76.80;;;;;;4846707;28;20470;-67
2023/12/14 07:40:46;;;;;;;2.23;1.43;;;20.90;75.60;;;;;;4844893;28;26092;-67
2023/12/14 07:43:13;;;;;;;2.30;2.10;;;20.90;75.60;;;;;;4851431;28;20466;-66
2023/12/14 07:45:40;;;;;;;2.17;1.50;;;20.90;75.40;;;;;;4848083;28;20479;-67
2023/12/14 07:48:07;;;;;;;1.83;1.43;;;20.90;75.40;;;;;;4847496;28;25770;-67
2023/12/14 07:50:35;;;;;;;1.40;1.30;;;20.90;75.00;;;;;;4846496;28;20469;-68
2023/12/14 07:53:02;;;;;;;2.60;1.77;;;20.90;75.00;;;;;;4850072;28;20713;-67
2023/12/14 07:55:29;;;;;;;1.30;1.20;;;21.00;74.70;;;;;;4846247;28;20543;-67
2023/12/14 07:57:56;;;;;;;2.50;1.70;;;20.90;74.60;;;;;;4845793;28;20464;-66
2023/12/14 08:00:23;;;;;;;1.70;1.35;;;20.90;75.10;;;;;;4849516;28;20586;-65
2023/12/14 08:02:50;;;;;;;1.77;1.50;;;20.90;75.30;;;;;;4850820;28;20205;-66
2023/12/14 08:05:16;;;;;;;8.87;1.70;;;21.00;75.50;;;;;;4845228;28;20517;-66
2023/12/14 08:07:44;;;;;;;1.50;1.40;;;21.00;75.60;;;;;;4849909;28;20468;-66
2023/12/14 08:10:11;;;;;;;2.78;1.70;;;20.90;75.60;;;;;;4850240;28;20439;-66
2023/12/14 08:12:38;;;;;;;5.10;1.70;;;21.00;75.30;;;;;;4854850;28;20226;-66
2023/12/14 08:15:07;;;;;;;1.97;1.63;;;21.00;75.00;;;;;;4851595;28;20976;-66
2023/12/14 08:17:34;;;;;;;1.67;1.57;;;21.00;75.00;;;;;;4852396;28;20500;-67
2023/12/14 08:20:01;;;;;;;2.67;1.60;;;21.00;74.70;;;;;;4852618;28;20590;-67
2023/12/14 08:22:28;;;;;;;2.85;2.38;;;21.00;74.90;;;;;;4843607;28;20459;-67
2023/12/14 08:24:56;;;;;;;3.00;1.70;;;21.00;74.80;;;;;;4852372;28;20196;-67
2023/12/14 08:27:23;;;;;;;1.80;1.40;;;21.00;74.70;;;;;;4846996;28;20475;-67
2023/12/14 08:29:49;;;;;;;2.17;1.97;;;21.00;74.60;;;;;;4852487;28;20463;-67
2023/12/14 08:32:16;;;;;;;2.10;1.80;;;21.00;74.30;;;;;;4851577;28;20469;-67
2023/12/14 08:34:43;;;;;;;2.00;1.47;;;21.00;74.30;;;;;;4853283;28;20462;-67
2023/12/14 08:37:10;;;;;;;2.33;1.83;;;21.00;74.30;;;;;;4854080;28;20808;-67
2023/12/14 08:39:36;;;;;;;1.93;1.70;;;21.10;74.50;;;;;;4855762;28;20457;-67
2023/12/14 08:42:05;;;;;;;1.53;1.30;;;21.00;74.20;;;;;;4849694;28;26390;-67
2023/12/14 08:44:32;;;;;;;2.30;1.80;;;21.10;74.30;;;;;;4845987;28;20461;-66
2023/12/14 08:46:58;;;;;;;1.80;1.65;;;21.10;74.30;;;;;;4848823;28;20498;-67
2023/12/14 08:49:25;;;;;;;2.53;1.80;;;21.20;74.40;;;;;;4853934;28;20196;-67
2023/12/14 08:51:52;;;;;;;2.13;1.73;;;21.20;74.20;;;;;;4856659;28;20610;-67
2023/12/14 08:54:19;;;;;;;2.23;1.67;;;21.10;74.10;;;;;;4850536;28;20551;-67
2023/12/14 08:56:45;;;;;;;2.00;1.77;;;21.10;74.00;;;;;;4844394;28;20503;-67
2023/12/14 08:59:14;;;;;;;2.27;2.03;;;21.10;74.10;;;;;;4854942;28;20481;-66
2023/12/14 09:01:40;;;;;;;1.57;1.47;;;21.10;74.10;;;;;;4852268;28;20474;-66
2023/12/14 09:04:07;;;;;;;1.80;1.50;;;21.10;74.00;;;;;;4846964;28;20470;-66
2023/12/14 09:06:34;;;;;;;2.10;1.90;;;21.10;74.00;;;;;;4854471;28;20440;-67
2023/12/14 09:09:02;;;;;;;2.87;2.57;;;21.10;74.10;;;;;;4854363;28;21161;-67
2023/12/14 09:11:29;;;;;;;2.40;1.90;;;21.10;74.00;;;;;;4852331;28;20467;-68
2023/12/14 09:13:56;;;;;;;14.40;7.30;;;21.10;73.60;;;;;;4850534;28;21652;-67
2023/12/14 09:16:24;;;;;;;7.63;6.93;;;21.10;68.20;;;;;;4852363;28;20654;-63
2023/12/14 09:18:50;;;;;;;9.23;8.43;;;21.00;67.70;;;;;;4843357;28;20467;-69
2023/12/14 09:21:17;;;;;;;8.70;7.80;;;20.90;71.40;;;;;;4840980;28;20205;-68
2023/12/14 09:23:44;;;;;;;8.10;7.30;;;20.80;79.80;;;;;;4849432;28;20463;-69
2023/12/14 09:26:11;;;;;;;5.00;4.50;;;20.60;64.30;;;;;;4850349;28;20212;-72
2023/12/14 09:28:38;;;;;;;4.07;3.67;;;20.50;70.60;;;;;;4849230;28;20463;-74
2023/12/14 09:31:05;;;;;;;4.85;3.55;;;20.70;72.50;;;;;;4883714;28;20459;-76
2023/12/14 09:33:33;;;;;;;3.15;2.85;;;20.90;72.70;;;;;;4849142;28;20224;-76
2023/12/14 09:36:00;;;;;;;6.70;2.97;;;21.00;73.10;;;;;;4846533;28;20204;-76
2023/12/14 09:38:27;;;;;;;3.50;2.57;;;21.20;73.30;;;;;;4851779;28;20548;-76
2023/12/14 09:40:53;;;;;;;3.10;2.30;;;21.40;73.80;;;;;;4849946;28;20470;-77
2023/12/14 09:43:21;;;;;;;2.60;2.37;;;21.40;74.40;;;;;;4854082;28;20462;-79
2023/12/14 09:45:50;;;;;;;2.80;2.40;;;21.50;74.60;;;;;;4841836;28;20693;-79
2023/12/14 09:48:17;;;;;;;2.80;2.30;;;21.70;75.00;;;;;;4851252;28;20520;-76
2023/12/14 09:50:46;;;;;;;2.47;2.07;;;21.70;76.70;;;;;;4849563;28;21352;-75
2023/12/14 09:53:13;;;;;;;2.60;2.20;;;21.80;76.70;;;;;;4852891;28;20479;-84
2023/12/14 09:55:40;;;;;;;3.70;1.93;;;21.90;77.20;;;;;;4851090;28;20498;-74
2023/12/14 09:58:09;;;;;;;2.57;2.20;;;22.00;86.30;;;;;;4850832;28;25839;-75
2023/12/14 10:00:37;;;;;;;1.80;1.63;;;22.10;82.90;;;;;;4850585;28;20468;-72
2023/12/14 10:03:25;;;;;;;2.30;2.10;;;22.20;82.50;;;;;;4840792;28;20476;-68
2023/12/14 10:05:55;;;;;;;3.20;1.97;;;22.30;80.10;;;;;;4852052;28;20455;-79
2023/12/14 10:08:22;;;;;;;3.13;1.83;;;22.50;78.90;;;;;;4852447;28;21250;-73
2023/12/14 10:10:52;;;;;;;3.00;1.80;;;22.60;78.20;;;;;;4849256;28;20463;-73
2023/12/14 10:13:19;;;;;;;2.90;2.30;;;22.60;80.80;;;;;;4849099;28;20481;-75
2023/12/14 10:15:48;;;;;;;1.70;1.50;;;22.60;79.10;;;;;;4849822;28;20613;-72
2023/12/14 10:18:23;;;;;;;2.50;2.03;;;22.70;78.50;;;;;;4855388;28;20549;-83
2023/12/14 10:20:50;;;;;;;1.60;1.40;;;22.80;78.30;;;;;;4849649;28;20554;-75
2023/12/14 10:23:18;;;;;;;8.90;2.20;;;22.60;78.00;;;;;;4848447;28;20472;-77
2023/12/14 10:25:45;;;;;;;1.60;1.30;;;22.90;78.10;;;;;;4850099;28;20573;-76
2023/12/14 10:28:13;;;;;;;2.43;2.23;;;23.10;78.10;;;;;;4848920;28;20466;-75
2023/12/14 10:30:39;;;;;;;2.00;1.50;;;23.00;77.50;;;;;;4849353;28;20561;-75
2023/12/14 10:33:06;;;;;;;2.90;1.97;;;23.00;77.80;;;;;;4841921;28;21242;-74
2023/12/14 10:35:33;;;;;;;2.63;2.20;;;23.00;77.90;;;;;;4848898;28;20463;-75
2023/12/14 10:38:05;;;;;;;5.90;1.93;;;23.20;78.30;;;;;;4852045;28;26145;-77
2023/12/14 10:40:36;;;;;;;2.67;1.30;;;23.10;78.20;;;;;;4848625;28;20570;-74
2023/12/14 10:43:05;;;;;;;2.20;2.00;;;23.10;78.70;;;;;;4844779;28;20478;-76
2023/12/14 10:45:34;;;;;;;2.70;2.03;;;23.20;78.90;;;;;;4852156;28;20508;-74
2023/12/14 10:48:01;;;;;;;5.83;5.33;;;23.20;76.50;;;;;;4907150;28;20571;-69
2023/12/14 10:50:30;;;;;;;6.07;5.63;;;23.40;65.20;;;;;;4984691;28;20461;-69
2023/12/14 10:52:57;;;;;;;7.00;6.30;;;23.00;65.10;;;;;;4980991;28;20518;-70
2023/12/14 10:55:30;;;;;;;5.43;5.03;;;22.70;61.20;;;;;;4984767;28;20455;-54
2023/12/14 10:57:58;;;;;;;4.67;3.60;;;22.60;64.00;;;;;;4983315;28;20463;-57
2023/12/14 11:00:25;;;;;;;3.50;3.20;;;22.80;66.20;;;;;;4986304;28;20466;-60
2023/12/14 11:02:53;;;;;;;4.90;3.20;;;22.80;66.30;;;;;;4902812;28;20968;-59
2023/12/14 11:05:26;;;;;;;11.50;2.80;;;23.10;65.90;;;;;;4757887;28;20517;-58
2023/12/14 11:07:55;;;;;;;5.77;2.70;;;23.10;66.00;;;;;;4761997;28;20459;-59
2023/12/14 11:10:23;;;;;;;2.60;2.40;;;23.20;66.90;;;;;;4853959;28;20467;-58
2023/12/14 11:13:01;;;;;;;2.63;2.20;;;23.20;67.00;;;;;;4983190;28;20484;-62
2023/12/14 11:15:29;;;;;;;3.67;2.13;;;23.20;67.10;;;;;;4983558;28;20546;-62
2023/12/14 11:18:25;;;;;;;4.30;2.17;;;23.20;67.90;;;;;;4986834;28;20443;-61
2023/12/14 11:20:55;;;;;;;4.30;2.47;;;23.30;68.50;;;;;;4982801;28;20473;-61
2023/12/14 11:23:38;;;;;;;3.50;2.40;;;23.30;69.10;;;;;;4935488;28;20478;-60
2023/12/14 11:26:06;;;;;;;3.10;2.63;;;23.40;69.20;;;;;;4987109;28;20509;-60
2023/12/14 11:28:37;;;;;;;5.10;2.60;;;23.50;69.30;;;;;;4980519;28;20499;-61
2023/12/14 11:31:06;;;;;;;3.47;2.30;;;23.40;69.50;;;;;;4980955;28;20466;-60
2023/12/14 11:33:33;;;;;;;2.60;2.27;;;23.40;70.00;;;;;;4983889;28;20575;-60
2023/12/14 11:36:03;;;;;;;3.50;1.73;;;23.40;70.50;;;;;;4979369;28;20487;-63
2023/12/14 11:38:29;;;;;;;2.83;1.90;;;23.40;70.90;;;;;;4976362;28;20499;-58
2023/12/14 11:40:56;;;;;;;5.43;1.93;;;23.50;71.40;;;;;;4985903;28;20456;-60
2023/12/14 11:43:26;;;;;;;2.37;1.73;;;23.50;71.80;;;;;;4986088;28;20737;-63
2023/12/14 11:45:54;;;;;;;4.27;2.33;;;23.40;72.70;;;;;;4983364;28;20531;-63
2023/12/14 11:48:21;;;;;;;2.97;2.10;;;23.50;72.80;;;;;;4976861;28;20471;-63
2023/12/14 11:50:48;;;;;;;3.27;2.00;;;23.50;73.30;;;;;;4983792;28;20842;-63
2023/12/14 11:53:15;;;;;;;2.63;2.23;;;23.50;73.50;;;;;;4981405;28;20495;-61
2023/12/14 11:55:43;;;;;;;4.10;1.83;;;23.50;73.80;;;;;;4983608;28;20922;-62
2023/12/14 11:58:13;;;;;;;2.63;2.10;;;23.50;73.90;;;;;;4982507;28;20463;-61
2023/12/14 12:00:40;;;;;;;4.90;2.27;;;23.50;72.60;;;;;;4981371;28;20687;-62
2023/12/14 12:03:14;;;;;;;6.27;2.73;;;23.40;72.10;;;;;;4978829;28;20471;-61
2023/12/14 12:05:42;;;;;;;3.43;2.37;;;23.50;72.10;;;;;;4974396;28;20573;-61
2023/12/14 12:08:09;;;;;;;8.50;2.40;;;23.50;72.40;;;;;;4979433;28;20471;-59
2023/12/14 12:10:37;;;;;;;5.60;2.80;;;23.50;72.60;;;;;;4986467;28;20460;-61
2023/12/14 12:13:05;;;;;;;4.67;2.60;;;23.50;72.50;;;;;;4983054;28;20479;-61
2023/12/14 12:15:32;;;;;;;7.10;6.27;;;23.50;72.40;;;;;;4983720;28;20516;-61
2023/12/14 12:17:59;;;;;;;7.30;6.57;;;23.50;78.60;;;;;;4980693;28;20587;-59
2023/12/14 12:20:27;;;;;;;12.73;5.43;;;23.30;74.90;;;;;;4986722;28;20463;-59
2023/12/14 12:22:55;;;;;;;8.40;4.63;;;23.30;77.80;;;;;;4986817;28;20463;-62
2023/12/14 12:25:22;;;;;;;5.37;3.53;;;23.20;78.50;;;;;;4988052;28;20448;-59
2023/12/14 12:27:49;;;;;;;5.40;4.00;;;23.30;78.90;;;;;;4982247;28;20550;-56
2023/12/14 12:30:16;;;;;;;4.40;4.00;;;23.30;79.10;;;;;;4984684;28;20468;-57
2023/12/14 12:32:43;;;;;;;5.90;3.70;;;23.10;77.90;;;;;;4977372;28;20455;-60
2023/12/14 12:35:10;;;;;;;8.33;3.60;;;23.10;78.40;;;;;;4976499;28;20979;-58
2023/12/14 12:37:38;;;;;;;3.27;2.83;;;23.20;78.80;;;;;;4984812;28;20467;-59
2023/12/14 12:40:06;;;;;;;3.20;2.80;;;23.10;79.00;;;;;;4983223;28;20464;-58
2023/12/14 12:42:33;;;;;;;7.87;3.00;;;23.10;79.10;;;;;;4982680;28;20456;-59
2023/12/14 12:45:00;;;;;;;4.20;3.17;;;23.10;79.10;;;;;;4983934;28;20479;-59
2023/12/14 12:47:27;;;;;;;4.00;2.90;;;23.10;79.30;;;;;;4986358;28;20959;-59